createdAt,value
2022-12-31T00:01:49.319Z,41.85
2022-12-31T00:04:16.180Z,35.53
2022-12-31T00:06:42.844Z,28.42
2022-12-31T00:09:10.596Z,36.05
2022-12-31T00:11:38.125Z,30.25
2022-12-31T00:14:05.550Z,35.53
2022-12-31T00:16:36.770Z,31.52
2022-12-31T00:19:05.066Z,34.00
2022-12-31T00:21:34.152Z,37.15
2022-12-31T00:24:01.741Z,30.40
2022-12-31T00:26:31.000Z,29.95
2022-12-31T00:28:59.753Z,32.85
2022-12-31T00:31:29.454Z,35.28
2022-12-31T00:33:57.111Z,32.72
2022-12-31T00:36:28.129Z,30.23
2022-12-31T00:38:56.357Z,30.75
2022-12-31T00:41:23.953Z,27.45
2022-12-31T00:43:50.931Z,28.50
2022-12-31T00:46:18.605Z,28.45
2022-12-31T00:48:45.914Z,32.10
2022-12-31T00:51:15.960Z,29.83
2022-12-31T00:53:43.338Z,32.55
2022-12-31T00:56:13.628Z,31.23
2022-12-31T00:58:41.475Z,29.67
2022-12-31T01:01:19.227Z,38.03
2022-12-31T01:03:47.240Z,26.85
2022-12-31T01:06:14.491Z,25.33
2022-12-31T01:08:41.301Z,26.67
2022-12-31T01:11:25.362Z,28.02
2022-12-31T01:13:55.365Z,30.17
2022-12-31T01:16:26.025Z,31.98
2022-12-31T01:18:53.410Z,34.33
2022-12-31T01:21:21.599Z,28.38
2022-12-31T01:23:48.443Z,29.00
2022-12-31T01:26:16.572Z,28.55
2022-12-31T01:28:43.321Z,32.13
2022-12-31T01:31:13.254Z,31.95
2022-12-31T01:33:41.492Z,29.05
2022-12-31T01:36:25.081Z,29.83
2022-12-31T01:38:52.853Z,31.42
2022-12-31T01:41:22.344Z,31.17
2022-12-31T01:43:48.932Z,29.30
2022-12-31T01:46:23.849Z,29.83
2022-12-31T01:48:53.281Z,31.58
2022-12-31T01:51:21.161Z,30.48
2022-12-31T01:53:48.348Z,29.58
2022-12-31T01:56:15.132Z,34.63
2022-12-31T01:58:46.004Z,30.13
2022-12-31T02:01:18.702Z,30.15
2022-12-31T02:03:45.440Z,34.72
2022-12-31T02:06:20.689Z,27.15
2022-12-31T02:08:47.830Z,36.03
2022-12-31T02:11:26.797Z,32.35
2022-12-31T02:13:58.753Z,36.05
2022-12-31T02:16:40.893Z,27.63
2022-12-31T02:19:29.258Z,30.40
2022-12-31T02:22:01.479Z,27.70
2022-12-31T02:24:58.954Z,31.05
2022-12-31T02:27:45.463Z,32.22
2022-12-31T02:30:18.590Z,33.97
2022-12-31T02:32:45.227Z,32.00
2022-12-31T02:35:20.768Z,29.88
2022-12-31T02:37:53.168Z,31.05
2022-12-31T02:40:22.373Z,33.53
2022-12-31T02:42:55.116Z,33.33
2022-12-31T02:45:29.345Z,35.03
2022-12-31T02:48:03.449Z,33.50
2022-12-31T02:50:30.118Z,33.53
2022-12-31T02:53:28.737Z,30.58
2022-12-31T02:56:30.576Z,36.30
2022-12-31T02:59:28.843Z,34.40
2022-12-31T03:02:18.067Z,41.33
2022-12-31T03:04:50.489Z,38.78
2022-12-31T03:07:22.333Z,37.50
2022-12-31T03:09:50.018Z,35.42
2022-12-31T03:12:33.989Z,35.38
2022-12-31T03:15:00.673Z,29.50
2022-12-31T03:17:27.608Z,37.05
2022-12-31T03:20:09.683Z,38.60
2022-12-31T03:22:40.553Z,33.22
2022-12-31T03:25:24.282Z,38.95
2022-12-31T03:27:52.401Z,35.20
2022-12-31T03:30:21.029Z,38.25
2022-12-31T03:32:48.776Z,36.38
2022-12-31T03:35:17.340Z,37.20
2022-12-31T03:37:44.015Z,35.55
2022-12-31T03:40:12.950Z,35.60
2022-12-31T03:42:40.518Z,38.13
2022-12-31T03:45:08.839Z,33.60
2022-12-31T03:47:35.779Z,36.88
2022-12-31T03:50:02.894Z,40.10
2022-12-31T03:52:29.735Z,39.15
2022-12-31T03:54:56.440Z,35.85
2022-12-31T03:57:24.226Z,34.15
2022-12-31T03:59:51.020Z,42.05
2022-12-31T04:02:20.007Z,39.97
2022-12-31T04:04:49.851Z,40.38
2022-12-31T04:07:17.204Z,43.90
2022-12-31T04:09:43.986Z,44.85
2022-12-31T04:12:10.647Z,43.03
2022-12-31T04:14:37.270Z,41.40
2022-12-31T04:17:03.981Z,45.33
2022-12-31T04:19:31.937Z,46.55
2022-12-31T04:21:58.807Z,41.08
2022-12-31T04:24:25.742Z,43.47
2022-12-31T04:26:52.387Z,40.10
2022-12-31T04:29:19.706Z,39.38
2022-12-31T04:31:46.534Z,39.33
2022-12-31T04:34:13.444Z,43.58
2022-12-31T04:36:40.113Z,38.08
2022-12-31T04:39:07.276Z,37.00
2022-12-31T04:41:34.192Z,45.28
2022-12-31T04:44:01.093Z,42.05
2022-12-31T04:46:30.557Z,50.38
2022-12-31T04:49:02.276Z,44.15
2022-12-31T04:51:30.536Z,37.45
2022-12-31T04:53:58.262Z,47.40
2022-12-31T04:56:26.150Z,42.05
2022-12-31T04:58:52.980Z,43.33
2022-12-31T05:01:20.207Z,37.97
2022-12-31T05:03:47.152Z,36.55
2022-12-31T05:06:17.015Z,39.75
2022-12-31T05:08:43.954Z,40.33
2022-12-31T05:11:11.379Z,44.95
2022-12-31T05:13:38.327Z,43.97
2022-12-31T05:16:05.397Z,42.40
2022-12-31T05:18:32.945Z,41.92
2022-12-31T05:21:00.095Z,46.65
2022-12-31T05:23:27.525Z,38.45
2022-12-31T05:25:54.624Z,42.28
2022-12-31T05:28:21.688Z,46.67
2022-12-31T05:30:50.285Z,40.53
2022-12-31T05:33:18.387Z,41.35
2022-12-31T05:35:45.616Z,41.00
2022-12-31T05:38:12.370Z,36.28
2022-12-31T05:40:39.006Z,37.47
2022-12-31T05:43:05.806Z,51.00
2022-12-31T05:45:32.509Z,41.13
2022-12-31T05:47:59.242Z,39.15
2022-12-31T05:50:26.267Z,32.97
2022-12-31T05:52:52.917Z,38.40
2022-12-31T05:55:19.642Z,38.72
2022-12-31T05:57:46.474Z,43.30
2022-12-31T06:00:14.125Z,46.20
2022-12-31T06:02:41.107Z,40.97
2022-12-31T06:05:08.189Z,31.95
2022-12-31T06:07:34.864Z,39.08
2022-12-31T06:10:01.558Z,35.67
2022-12-31T06:12:28.220Z,36.65
2022-12-31T06:14:54.832Z,34.85
2022-12-31T06:17:22.545Z,35.10
2022-12-31T06:19:49.265Z,39.90
2022-12-31T06:22:16.144Z,35.83
2022-12-31T06:24:42.780Z,40.50
2022-12-31T06:27:09.745Z,37.83
2022-12-31T06:29:36.368Z,32.65
2022-12-31T06:32:03.038Z,39.83
2022-12-31T06:34:29.696Z,36.55
2022-12-31T06:36:56.373Z,35.15
2022-12-31T06:39:23.126Z,32.78
2022-12-31T06:41:49.819Z,36.80
2022-12-31T06:44:16.639Z,34.70
2022-12-31T06:46:43.390Z,38.60
2022-12-31T06:49:10.247Z,37.60
2022-12-31T06:51:36.883Z,29.85
2022-12-31T06:54:06.818Z,32.63
2022-12-31T06:56:35.007Z,37.58
2022-12-31T06:59:03.204Z,36.60
2022-12-31T07:01:43.423Z,37.50
2022-12-31T07:04:29.689Z,36.70
2022-12-31T07:07:01.225Z,34.55
2022-12-31T07:09:48.796Z,31.67
2022-12-31T07:12:41.245Z,36.05
2022-12-31T07:15:13.771Z,36.92
2022-12-31T07:17:41.449Z,33.88
2022-12-31T07:20:14.359Z,44.65
2022-12-31T07:22:41.450Z,35.85
2022-12-31T07:25:12.709Z,37.63
2022-12-31T07:28:19.177Z,41.05
2022-12-31T07:30:55.717Z,41.75
2022-12-31T07:33:32.116Z,38.65
2022-12-31T07:36:24.442Z,36.63
2022-12-31T07:39:00.031Z,37.15
2022-12-31T07:41:38.667Z,35.65
2022-12-31T07:44:12.530Z,40.50
2022-12-31T07:46:55.356Z,41.08
2022-12-31T07:49:23.533Z,42.28
2022-12-31T07:51:50.566Z,44.80
2022-12-31T07:54:17.266Z,46.15
2022-12-31T07:56:45.094Z,45.92
2022-12-31T07:59:23.944Z,43.63
2022-12-31T08:02:18.615Z,42.30
2022-12-31T08:05:00.848Z,42.75
2022-12-31T08:07:42.646Z,40.55
2022-12-31T08:10:19.836Z,47.55
2022-12-31T08:12:49.930Z,61.05
2022-12-31T08:15:18.789Z,145.65
2022-12-31T08:17:46.034Z,84.30
2022-12-31T08:20:15.990Z,66.63
2022-12-31T08:23:04.460Z,65.13
2022-12-31T08:25:55.824Z,53.70
2022-12-31T08:28:32.188Z,50.90
2022-12-31T08:33:39.116Z,51.95
2022-12-31T08:36:17.306Z,54.90
2022-12-31T08:38:56.753Z,50.95
2022-12-31T08:41:43.099Z,55.50
2022-12-31T08:44:22.619Z,54.10
2022-12-31T08:46:55.895Z,51.25
2022-12-31T08:49:22.684Z,55.00
2022-12-31T08:51:49.553Z,50.92
2022-12-31T08:54:16.422Z,47.05
2022-12-31T08:57:03.984Z,54.85
2022-12-31T09:00:01.226Z,53.97
2022-12-31T09:02:48.018Z,58.42
2022-12-31T09:05:40.681Z,80.13
2022-12-31T09:08:28.605Z,57.95
2022-12-31T09:11:09.654Z,65.15
2022-12-31T09:13:59.950Z,66.38
2022-12-31T09:16:57.305Z,72.15
2022-12-31T09:21:50.913Z,59.53
2022-12-31T09:24:17.823Z,68.38
2022-12-31T09:27:04.725Z,61.50
2022-12-31T09:32:12.274Z,57.95
2022-12-31T09:34:45.054Z,66.90
2022-12-31T09:37:21.723Z,64.72
2022-12-31T09:39:49.300Z,65.10
2022-12-31T09:42:32.337Z,75.72
2022-12-31T09:45:19.873Z,85.00
2022-12-31T09:48:17.298Z,78.47
2022-12-31T09:53:32.143Z,71.78
2022-12-31T09:56:15.163Z,64.47
2022-12-31T09:58:43.302Z,63.35
2022-12-31T10:01:38.484Z,66.18
2022-12-31T10:04:35.785Z,72.35
2022-12-31T10:07:15.569Z,65.03
2022-12-31T10:09:58.544Z,63.92
2022-12-31T10:12:55.743Z,71.70
2022-12-31T10:15:44.593Z,65.25
2022-12-31T10:18:42.171Z,87.15
2022-12-31T10:21:36.245Z,70.63
2022-12-31T10:24:18.494Z,97.65
2022-12-31T10:26:58.513Z,78.65
2022-12-31T10:29:32.055Z,77.63
2022-12-31T10:32:31.563Z,78.82
2022-12-31T10:35:00.419Z,74.18
2022-12-31T10:37:44.046Z,58.25
2022-12-31T10:40:41.311Z,62.42
2022-12-31T10:43:38.395Z,63.25
2022-12-31T10:46:36.657Z,62.75
2022-12-31T10:49:25.364Z,59.20
2022-12-31T10:52:12.864Z,63.72
2022-12-31T10:55:14.791Z,60.22
2022-12-31T10:58:16.715Z,60.75
2022-12-31T11:00:53.491Z,61.33
2022-12-31T11:03:50.341Z,59.88
2022-12-31T11:06:36.875Z,58.70
2022-12-31T11:09:39.118Z,53.90
2022-12-31T11:12:21.619Z,66.30
2022-12-31T11:15:03.457Z,64.32
2022-12-31T11:17:31.105Z,71.70
2022-12-31T11:20:13.934Z,63.78
2022-12-31T11:23:01.411Z,66.40
2022-12-31T11:25:48.113Z,66.82
2022-12-31T11:28:31.129Z,68.93
2022-12-31T11:31:14.310Z,63.22
2022-12-31T11:34:16.090Z,66.50
2022-12-31T11:37:13.274Z,69.32
2022-12-31T11:39:50.054Z,72.85
2022-12-31T11:42:32.974Z,79.28
2022-12-31T11:45:12.056Z,76.35
2022-12-31T11:51:06.310Z,81.90
2022-12-31T11:53:44.092Z,80.88
2022-12-31T11:56:18.571Z,81.55
2022-12-31T11:58:50.565Z,79.55
2022-12-31T12:01:27.048Z,82.60
2022-12-31T12:03:53.772Z,76.15
2022-12-31T12:06:27.959Z,74.60
2022-12-31T12:09:04.584Z,82.20
2022-12-31T12:11:35.135Z,77.28
2022-12-31T12:14:02.055Z,75.28
2022-12-31T12:16:28.885Z,77.88
2022-12-31T12:19:17.640Z,70.57
2022-12-31T12:21:47.605Z,70.03
2022-12-31T12:24:21.927Z,68.53
2022-12-31T12:26:49.192Z,75.05
2022-12-31T12:29:18.645Z,74.60
2022-12-31T12:32:04.351Z,77.00
2022-12-31T12:34:33.577Z,73.00
2022-12-31T12:37:00.540Z,69.20
2022-12-31T12:39:31.965Z,77.10
2022-12-31T12:42:03.587Z,66.07
2022-12-31T12:44:31.024Z,66.68
2022-12-31T12:46:58.432Z,70.47
2022-12-31T12:49:27.312Z,67.47
2022-12-31T12:52:09.313Z,67.10
2022-12-31T12:54:55.932Z,75.30
2022-12-31T12:57:39.591Z,66.10
2022-12-31T13:00:23.204Z,71.50
2022-12-31T13:02:59.779Z,72.47
2022-12-31T13:05:41.952Z,65.32
2022-12-31T13:08:39.059Z,69.25
2022-12-31T13:11:22.794Z,63.40
2022-12-31T13:14:01.035Z,66.93
2022-12-31T13:16:43.545Z,71.68
2022-12-31T13:19:42.045Z,75.15
2022-12-31T13:22:23.383Z,70.35
2022-12-31T13:24:51.050Z,64.00
2022-12-31T13:27:32.876Z,68.10
2022-12-31T13:30:02.375Z,64.10
2022-12-31T13:32:40.692Z,66.50
2022-12-31T13:35:29.020Z,59.08
2022-12-31T13:38:05.854Z,58.55
2022-12-31T13:40:53.098Z,59.05
2022-12-31T13:43:35.316Z,54.53
2022-12-31T13:46:22.282Z,53.78
2022-12-31T13:48:54.613Z,49.85
2022-12-31T13:51:45.911Z,45.15
2022-12-31T13:54:20.349Z,53.22
2022-12-31T13:56:50.612Z,43.22
2022-12-31T13:59:21.781Z,42.13
2022-12-31T14:02:08.397Z,46.40
2022-12-31T14:04:43.810Z,43.67
2022-12-31T14:07:16.913Z,37.65
2022-12-31T14:09:43.981Z,43.60
2022-12-31T14:12:21.772Z,46.13
2022-12-31T14:15:24.039Z,36.45
2022-12-31T14:18:04.613Z,47.90
2022-12-31T14:20:47.865Z,49.55
2022-12-31T14:23:49.857Z,30.40
2022-12-31T14:26:31.833Z,39.55
2022-12-31T14:29:19.545Z,42.70
2022-12-31T14:32:11.301Z,30.95
2022-12-31T14:34:45.789Z,35.85
2022-12-31T14:37:36.180Z,35.90
2022-12-31T14:40:25.489Z,34.50
2022-12-31T14:43:10.230Z,38.35
2022-12-31T14:46:01.478Z,32.80
2022-12-31T14:48:58.685Z,33.58
2022-12-31T14:51:30.175Z,38.97
2022-12-31T14:53:58.344Z,37.58
2022-12-31T14:56:44.631Z,33.67
2022-12-31T14:59:29.537Z,34.85
2022-12-31T15:01:58.629Z,35.85
2022-12-31T15:04:49.470Z,40.20
2022-12-31T15:07:30.237Z,32.55
2022-12-31T15:10:18.178Z,39.85
2022-12-31T15:13:06.811Z,30.73
2022-12-31T15:15:57.424Z,35.10
2022-12-31T15:18:25.053Z,34.63
2022-12-31T15:21:11.693Z,32.15
2022-12-31T15:23:42.273Z,33.45
2022-12-31T15:26:23.256Z,33.70
2022-12-31T15:29:01.026Z,36.95
2022-12-31T15:31:28.610Z,162.45
2022-12-31T15:34:02.651Z,39.38
2022-12-31T15:36:32.355Z,41.45
2022-12-31T15:39:25.568Z,40.50
2022-12-31T15:42:36.073Z,42.88
2022-12-31T15:44:50.184Z,49.55
2022-12-31T15:47:22.984Z,46.50
2022-12-31T15:49:53.676Z,42.05
2022-12-31T15:52:25.527Z,44.42
2022-12-31T15:54:56.588Z,50.55
2022-12-31T15:57:33.063Z,47.20
2022-12-31T16:00:01.950Z,45.13
2022-12-31T16:02:28.953Z,46.40
2022-12-31T16:04:56.060Z,42.63
2022-12-31T16:07:24.312Z,46.25
2022-12-31T16:09:56.001Z,36.90
2022-12-31T16:12:32.803Z,45.00
2022-12-31T16:15:01.726Z,39.03
2022-12-31T16:17:29.708Z,39.28
2022-12-31T16:19:58.461Z,36.47
2022-12-31T16:22:36.258Z,47.35
2022-12-31T16:25:30.563Z,70.68
2022-12-31T16:27:54.183Z,78.20
2022-12-31T16:30:21.077Z,50.40
2022-12-31T16:32:50.084Z,55.85
2022-12-31T16:35:34.161Z,43.85
2022-12-31T16:38:02.736Z,49.38
2022-12-31T16:40:29.818Z,83.95
2022-12-31T16:42:56.491Z,65.95
2022-12-31T16:45:34.929Z,67.20
2022-12-31T16:48:16.567Z,64.20
2022-12-31T16:50:46.472Z,62.80
2022-12-31T16:53:18.136Z,62.33
2022-12-31T16:55:53.042Z,71.18
2022-12-31T16:58:26.838Z,59.00
2022-12-31T17:00:55.735Z,57.92
2022-12-31T17:03:25.016Z,67.75
2022-12-31T17:05:56.999Z,66.88
2022-12-31T17:08:28.413Z,69.47
2022-12-31T17:10:56.522Z,62.40
2022-12-31T17:13:29.296Z,63.33
2022-12-31T17:15:58.092Z,59.80
2022-12-31T17:18:29.020Z,67.25
2022-12-31T17:21:04.290Z,57.15
2022-12-31T17:23:33.998Z,61.70
2022-12-31T17:26:09.507Z,62.03
2022-12-31T17:28:52.337Z,85.68
2022-12-31T17:31:36.904Z,62.10
2022-12-31T17:34:20.897Z,70.47
2022-12-31T17:37:17.494Z,366.15
2022-12-31T17:39:47.307Z,425.40
2022-12-31T17:42:21.731Z,430.60
2022-12-31T17:44:48.561Z,394.50
2022-12-31T17:47:15.189Z,425.77
2022-12-31T17:49:45.790Z,410.77
2022-12-31T17:52:14.632Z,449.80
2022-12-31T17:54:42.277Z,362.48
2022-12-31T17:57:24.023Z,165.55
2022-12-31T17:59:50.954Z,248.07
2022-12-31T18:02:17.822Z,248.23
2022-12-31T18:04:44.641Z,273.40
2022-12-31T18:07:11.474Z,266.40
2022-12-31T18:09:38.287Z,252.73
2022-12-31T18:12:06.407Z,278.73
2022-12-31T18:14:33.674Z,239.73
2022-12-31T18:17:00.787Z,241.38
2022-12-31T18:20:02.902Z,227.48
2022-12-31T18:22:17.600Z,188.60
2022-12-31T18:24:44.402Z,176.88
2022-12-31T18:27:17.007Z,169.90
2022-12-31T18:29:43.824Z,170.25
2022-12-31T18:32:28.125Z,171.25
2022-12-31T18:34:54.925Z,163.40
2022-12-31T18:37:22.464Z,153.48
2022-12-31T18:39:49.239Z,144.27
2022-12-31T18:42:18.581Z,150.52
2022-12-31T18:44:46.518Z,126.75
2022-12-31T18:47:16.346Z,113.95
2022-12-31T18:49:44.834Z,134.75
2022-12-31T18:52:14.713Z,142.30
2022-12-31T18:54:42.027Z,132.15
2022-12-31T18:57:13.651Z,85.28
2022-12-31T18:59:40.821Z,85.40
2022-12-31T19:02:15.253Z,104.80
2022-12-31T19:04:42.102Z,110.40
2022-12-31T19:07:08.751Z,132.55
2022-12-31T19:09:56.386Z,134.70
2022-12-31T19:12:22.235Z,144.43
2022-12-31T19:14:48.906Z,147.45
2022-12-31T19:17:15.690Z,118.85
2022-12-31T19:19:42.361Z,97.03
2022-12-31T19:22:14.935Z,101.30
2022-12-31T19:24:41.614Z,100.43
2022-12-31T19:27:09.732Z,148.57
2022-12-31T19:29:36.403Z,153.38
2022-12-31T19:32:03.106Z,202.98
2022-12-31T19:34:29.759Z,131.45
2022-12-31T19:36:56.416Z,137.77
2022-12-31T19:39:23.069Z,151.65
2022-12-31T19:41:56.510Z,138.88
2022-12-31T19:44:25.750Z,139.07
2022-12-31T19:46:52.476Z,151.45
2022-12-31T19:49:19.126Z,113.60
2022-12-31T19:51:45.778Z,126.80
2022-12-31T19:54:13.610Z,125.60
2022-12-31T19:56:40.565Z,124.28
2022-12-31T19:59:09.523Z,129.75
2022-12-31T20:01:36.301Z,137.07
2022-12-31T20:04:03.098Z,115.28
2022-12-31T20:06:30.011Z,129.45
2022-12-31T20:08:56.675Z,130.18
2022-12-31T20:11:24.483Z,113.47
2022-12-31T20:13:53.642Z,112.35
2022-12-31T20:16:23.350Z,111.20
2022-12-31T20:18:50.781Z,114.28
2022-12-31T20:21:19.966Z,124.72
2022-12-31T20:23:48.671Z,113.32
2022-12-31T20:26:15.696Z,116.88
2022-12-31T20:28:42.560Z,120.45
2022-12-31T20:31:16.231Z,120.95
2022-12-31T20:33:43.394Z,128.48
2022-12-31T20:36:13.473Z,121.57
2022-12-31T20:38:41.067Z,119.85
2022-12-31T20:41:11.529Z,112.70
2022-12-31T20:43:38.966Z,101.68
2022-12-31T20:46:12.677Z,106.53
2022-12-31T20:48:41.908Z,112.35
2022-12-31T20:51:08.620Z,113.20
2022-12-31T20:53:35.293Z,119.38
2022-12-31T20:56:06.313Z,114.00
2022-12-31T20:58:33.565Z,132.85
2022-12-31T21:01:00.480Z,119.38
2022-12-31T21:06:14.918Z,106.00
2022-12-31T21:08:42.290Z,100.20
2022-12-31T21:11:25.144Z,98.15
2022-12-31T21:13:51.824Z,105.80
2022-12-31T21:16:18.550Z,104.35
2022-12-31T21:18:45.534Z,103.57
2022-12-31T21:21:13.016Z,105.40
2022-12-31T21:23:40.235Z,97.32
2022-12-31T21:26:07.050Z,105.55
2022-12-31T21:28:33.878Z,101.68
2022-12-31T21:31:03.574Z,123.90
2022-12-31T21:33:30.455Z,114.60
2022-12-31T21:36:02.624Z,114.85
2022-12-31T21:38:31.263Z,116.30
2022-12-31T21:41:07.860Z,127.80
2022-12-31T21:43:35.185Z,146.25
2022-12-31T21:46:04.607Z,147.05
2022-12-31T21:48:31.661Z,139.60
2022-12-31T21:51:09.304Z,187.07
2022-12-31T21:53:37.340Z,214.57
2022-12-31T21:56:08.369Z,159.85
2022-12-31T21:58:40.214Z,172.23
2022-12-31T22:01:22.735Z,261.02
2022-12-31T22:03:49.669Z,344.95
2022-12-31T22:06:22.104Z,322.65
2022-12-31T22:08:51.820Z,198.70
2022-12-31T22:11:20.779Z,199.85
2022-12-31T22:13:47.736Z,195.75
2022-12-31T22:16:15.104Z,170.77
2022-12-31T22:18:42.974Z,211.45
2022-12-31T22:21:18.315Z,252.20
2022-12-31T22:23:49.317Z,363.35
2022-12-31T22:26:17.575Z,291.95
2022-12-31T22:28:45.581Z,396.23
2022-12-31T22:31:15.185Z,291.48
2022-12-31T22:33:42.675Z,212.05
2022-12-31T22:36:14.209Z,196.00
2022-12-31T22:38:41.033Z,209.60
2022-12-31T22:41:10.640Z,292.98
2022-12-31T22:43:40.235Z,282.92
2022-12-31T22:46:09.866Z,251.85
2022-12-31T22:48:37.165Z,314.08
2022-12-31T22:51:04.317Z,221.27
2022-12-31T22:53:31.069Z,208.55
2022-12-31T22:55:58.138Z,279.02
2022-12-31T22:58:28.095Z,239.80
2022-12-31T23:00:54.799Z,152.63
2022-12-31T23:03:21.753Z,179.70
2022-12-31T23:05:52.078Z,190.48
2022-12-31T23:08:23.760Z,502.20
2022-12-31T23:10:59.961Z,505.45
2022-12-31T23:13:49.756Z,545.55
2022-12-31T23:16:32.959Z,507.88
2022-12-31T23:19:15.937Z,584.65
2022-12-31T23:21:57.976Z,460.85
2022-12-31T23:24:27.991Z,536.67
2022-12-31T23:26:57.143Z,478.77
2022-12-31T23:29:25.182Z,488.55
2022-12-31T23:31:53.018Z,986.88
2022-12-31T23:34:20.299Z,827.88
2022-12-31T23:36:47.032Z,657.50
2022-12-31T23:39:14.768Z,625.25
2022-12-31T23:41:41.418Z,614.58
2022-12-31T23:44:08.267Z,617.08
2022-12-31T23:46:34.930Z,616.40
2022-12-31T23:49:01.676Z,552.47
2022-12-31T23:51:28.357Z,549.47
2022-12-31T23:53:55.052Z,599.30
2022-12-31T23:56:23.964Z,526.33
2022-12-31T23:58:59.731Z,456.55
